createdAt,value
2019-06-07T00:00:40.137Z,83.80
2019-06-07T00:01:36.271Z,83.80
2019-06-07T00:02:35.262Z,83.59
2019-06-07T00:03:35.269Z,83.59
2019-06-07T00:04:35.238Z,84.20
2019-06-07T00:05:35.234Z,83.90
2019-06-07T00:06:35.213Z,84.34
2019-06-07T00:07:35.200Z,84.04
2019-06-07T00:08:35.208Z,83.80
2019-06-07T00:09:35.178Z,84.00
2019-06-07T00:10:37.035Z,83.70
2019-06-07T00:11:35.153Z,84.25
2019-06-07T00:12:35.142Z,84.14
2019-06-07T00:13:35.147Z,84.82
2019-06-07T00:14:35.117Z,84.75
2019-06-07T00:15:35.105Z,84.66
2019-06-07T00:16:35.093Z,84.59
2019-06-07T00:17:35.100Z,84.75
2019-06-07T00:18:35.086Z,84.66
2019-06-07T00:19:35.057Z,84.45
2019-06-07T00:20:35.048Z,85.47
2019-06-07T00:22:13.472Z,84.96
2019-06-07T00:22:36.020Z,85.37
2019-06-07T00:23:35.027Z,86.18
2019-06-07T00:24:34.997Z,85.37
2019-06-07T00:25:34.983Z,84.96
2019-06-07T00:26:56.273Z,85.21
2019-06-07T00:27:35.957Z,85.27
2019-06-07T00:28:34.966Z,85.30
2019-06-07T00:29:34.937Z,85.10
2019-06-07T00:30:45.952Z,84.69
2019-06-07T00:31:35.910Z,84.75
2019-06-07T00:32:34.900Z,85.10
2019-06-07T00:33:34.905Z,85.10
2019-06-07T00:34:34.875Z,85.10
2019-06-07T00:35:34.863Z,84.80
2019-06-07T00:36:34.853Z,84.39
2019-06-07T00:37:34.838Z,84.74
2019-06-07T00:38:34.848Z,86.26
2019-06-07T00:39:34.814Z,85.41
2019-06-07T00:40:34.803Z,85.55
2019-06-07T00:41:34.824Z,85.30
2019-06-07T00:42:34.777Z,85.41
2019-06-07T00:43:34.766Z,85.30
2019-06-07T00:44:34.773Z,85.41
2019-06-07T00:45:34.743Z,85.10
2019-06-07T00:46:34.730Z,85.00
2019-06-07T00:47:34.721Z,85.41
2019-06-07T00:48:34.705Z,85.30
2019-06-07T00:49:41.121Z,84.83
2019-06-07T00:50:35.680Z,85.30
2019-06-07T00:51:49.896Z,86.26
2019-06-07T00:53:13.968Z,85.45
2019-06-07T00:53:35.644Z,85.14
2019-06-07T00:54:34.655Z,85.86
2019-06-07T00:55:34.623Z,86.06
2019-06-07T00:56:34.611Z,86.47
2019-06-07T00:57:34.598Z,86.36
2019-06-07T00:58:34.588Z,86.57
2019-06-07T00:59:34.600Z,86.16
2019-06-07T01:00:34.565Z,86.47
2019-06-07T01:01:34.551Z,86.16
2019-06-07T01:02:34.569Z,86.30
2019-06-07T01:03:34.527Z,86.47
2019-06-07T01:04:34.515Z,86.61
2019-06-07T01:05:34.520Z,86.91
2019-06-07T01:06:34.491Z,86.82
2019-06-07T01:07:34.479Z,86.91
2019-06-07T01:08:34.467Z,87.12
2019-06-07T01:09:34.455Z,86.91
2019-06-07T01:10:52.156Z,86.91
2019-06-07T01:11:35.470Z,86.71
2019-06-07T01:12:34.423Z,86.71
2019-06-07T01:13:34.406Z,86.61
2019-06-07T01:14:34.397Z,86.82
2019-06-07T01:15:34.403Z,86.82
2019-06-07T01:16:55.290Z,86.82
2019-06-07T01:17:50.157Z,86.82
2019-06-07T01:18:39.332Z,87.32
2019-06-07T01:19:35.338Z,87.23
2019-06-07T01:20:34.349Z,87.43
2019-06-07T01:21:34.316Z,87.63
2019-06-07T01:22:34.309Z,87.23
2019-06-07T01:24:04.926Z,87.57
2019-06-07T01:24:35.277Z,87.16
2019-06-07T01:25:34.323Z,87.57
2019-06-07T01:26:34.273Z,87.47
2019-06-07T01:27:34.253Z,87.57
2019-06-07T01:28:34.231Z,86.96
2019-06-07T01:29:34.219Z,87.88
2019-06-07T01:30:34.264Z,88.18
2019-06-07T01:31:34.213Z,88.90
2019-06-07T01:32:34.184Z,88.74
2019-06-07T01:33:50.210Z,88.39
2019-06-07T01:34:35.160Z,88.49
2019-06-07T01:35:34.147Z,88.64
2019-06-07T01:36:34.154Z,88.08
2019-06-07T01:37:34.126Z,88.59
2019-06-07T01:38:34.116Z,88.79
2019-06-07T01:39:34.102Z,88.79
2019-06-07T01:40:34.105Z,88.49
2019-06-07T01:41:34.096Z,88.53
2019-06-07T01:42:34.069Z,88.43
2019-06-07T01:43:34.055Z,89.15
2019-06-07T01:44:34.044Z,88.64
2019-06-07T01:45:34.030Z,89.04
2019-06-07T01:46:34.043Z,88.49
2019-06-07T01:47:34.007Z,88.43
2019-06-07T01:48:49.024Z,88.53
2019-06-07T01:49:34.981Z,88.18
2019-06-07T01:50:33.972Z,89.35
2019-06-07T01:51:35.368Z,88.64
2019-06-07T01:52:33.945Z,88.74
2019-06-07T01:53:33.935Z,88.94
2019-06-07T01:54:58.158Z,89.15
2019-06-07T01:55:34.910Z,89.35
2019-06-07T01:56:33.902Z,89.15
2019-06-07T01:57:45.562Z,88.94
2019-06-07T01:58:34.875Z,89.15
2019-06-07T01:59:33.868Z,88.74
2019-06-07T02:00:33.854Z,88.74
2019-06-07T02:01:35.156Z,88.53
2019-06-07T02:02:33.852Z,89.15
2019-06-07T02:03:33.835Z,89.04
2019-06-07T02:04:33.884Z,88.43
2019-06-07T02:05:33.795Z,89.15
2019-06-07T02:06:33.783Z,89.15
2019-06-07T02:07:33.827Z,88.94
2019-06-07T02:08:34.559Z,89.04
2019-06-07T02:09:33.758Z,89.25
2019-06-07T02:10:34.009Z,88.94
2019-06-07T02:11:33.808Z,88.74
2019-06-07T02:12:42.332Z,89.04
2019-06-07T02:13:34.715Z,89.09
2019-06-07T02:14:34.044Z,89.04
2019-06-07T02:15:36.627Z,89.09
2019-06-07T02:16:33.663Z,89.25
2019-06-07T02:17:33.649Z,88.74
2019-06-07T02:18:35.037Z,88.84
2019-06-07T02:19:33.809Z,89.04
2019-06-07T02:20:34.647Z,89.09
2019-06-07T02:21:34.541Z,89.50
2019-06-07T02:22:33.592Z,89.50
2019-06-07T02:23:33.816Z,89.18
2019-06-07T02:24:36.164Z,89.09
2019-06-07T02:25:42.953Z,88.98
2019-06-07T02:26:34.544Z,89.59
2019-06-07T02:27:33.533Z,89.29
2019-06-07T02:28:44.773Z,89.39
2019-06-07T02:29:34.512Z,89.50
2019-06-07T02:30:46.068Z,89.09
2019-06-07T02:31:39.168Z,89.80
2019-06-07T02:32:36.785Z,89.29
2019-06-07T02:33:39.591Z,89.18
2019-06-07T02:34:38.742Z,89.29
2019-06-07T02:35:40.712Z,89.50
2019-06-07T02:36:41.080Z,89.64
2019-06-07T02:37:37.051Z,89.74
2019-06-07T02:38:37.271Z,90.05
2019-06-07T02:39:38.258Z,90.72
2019-06-07T02:40:37.178Z,89.84
2019-06-07T02:41:39.219Z,90.36
2019-06-07T02:42:37.987Z,90.25
2019-06-07T02:43:36.992Z,90.86
2019-06-07T02:44:39.020Z,90.86
2019-06-07T02:45:42.222Z,90.66
2019-06-07T02:46:45.417Z,90.66
2019-06-07T02:47:37.665Z,91.07
2019-06-07T02:48:39.552Z,90.15
2019-06-07T02:49:41.185Z,90.39
2019-06-07T02:50:38.391Z,90.36
2019-06-07T02:51:40.715Z,90.97
2019-06-07T02:52:39.877Z,90.77
2019-06-07T02:53:39.973Z,90.36
2019-06-07T02:54:39.549Z,90.56
2019-06-07T02:56:10.661Z,91.17
2019-06-07T02:56:44.434Z,91.27
2019-06-07T02:57:36.950Z,91.27
2019-06-07T02:58:40.665Z,91.69
2019-06-07T03:00:04.457Z,91.38
2019-06-07T03:01:00.591Z,91.78
2019-06-07T03:01:41.189Z,91.48
2019-06-07T03:02:40.796Z,91.52
2019-06-07T03:03:39.557Z,91.78
2019-06-07T03:04:41.305Z,91.69
2019-06-07T03:05:36.415Z,91.78
2019-06-07T03:06:39.288Z,91.69
2019-06-07T03:07:39.056Z,91.58
2019-06-07T03:08:36.626Z,91.69
2019-06-07T03:09:34.997Z,92.10
2019-06-07T03:10:34.793Z,91.58
2019-06-07T03:11:36.940Z,91.78
2019-06-07T03:12:34.024Z,91.89
2019-06-07T03:13:34.913Z,91.78
2019-06-07T03:14:33.913Z,91.58
2019-06-07T03:15:44.677Z,91.69
2019-06-07T03:16:37.295Z,92.10
2019-06-07T03:17:37.825Z,92.19
2019-06-07T03:18:36.255Z,91.93
2019-06-07T03:19:36.495Z,92.40
2019-06-07T03:20:34.575Z,91.69
2019-06-07T03:21:33.883Z,92.30
2019-06-07T03:22:37.971Z,92.40
2019-06-07T03:23:36.051Z,91.58
2019-06-07T03:24:35.585Z,91.78
2019-06-07T03:25:37.005Z,92.14
2019-06-07T03:26:42.524Z,92.50
2019-06-07T03:27:41.531Z,91.83
2019-06-07T03:28:37.063Z,91.93
2019-06-07T03:29:34.429Z,91.93
2019-06-07T03:30:48.046Z,91.69
2019-06-07T03:31:41.480Z,91.69
2019-06-07T03:32:39.103Z,92.03
2019-06-07T03:33:41.169Z,92.14
2019-06-07T03:34:39.283Z,91.63
2019-06-07T03:35:35.320Z,91.89
2019-06-07T03:36:34.715Z,91.63
2019-06-07T03:37:37.646Z,91.93
2019-06-07T03:38:35.307Z,92.03
2019-06-07T03:39:33.741Z,91.93
2019-06-07T03:40:36.896Z,92.24
2019-06-07T03:41:44.843Z,92.10
2019-06-07T03:42:34.828Z,91.89
2019-06-07T03:43:35.956Z,92.19
2019-06-07T03:44:36.377Z,92.44
2019-06-07T03:45:36.024Z,92.44
2019-06-07T03:46:35.160Z,92.40
2019-06-07T03:47:36.529Z,92.55
2019-06-07T03:48:36.375Z,92.50
2019-06-07T03:49:36.462Z,92.03
2019-06-07T03:50:38.242Z,91.69
2019-06-07T03:51:35.692Z,92.24
2019-06-07T03:52:38.197Z,92.34
2019-06-07T03:53:34.821Z,92.65
2019-06-07T03:54:34.860Z,92.24
2019-06-07T03:55:37.777Z,91.63
2019-06-07T03:56:35.408Z,91.52
2019-06-07T03:58:27.493Z,91.52
2019-06-07T03:58:41.281Z,92.85
2019-06-07T03:59:38.676Z,91.52
2019-06-07T04:00:36.636Z,91.63
2019-06-07T04:01:34.822Z,92.34
2019-06-07T04:02:33.911Z,91.73
2019-06-07T04:03:43.570Z,91.48
2019-06-07T04:04:37.822Z,92.55
2019-06-07T04:05:38.828Z,92.40
2019-06-07T04:06:36.144Z,91.63
2019-06-07T04:07:36.084Z,91.83
2019-06-07T04:08:34.463Z,91.78
2019-06-07T04:09:35.597Z,91.93
2019-06-07T04:10:52.077Z,91.69
2019-06-07T04:11:35.074Z,91.78
2019-06-07T04:12:38.641Z,91.89
2019-06-07T04:13:34.842Z,91.69
2019-06-07T04:14:32.890Z,91.69
2019-06-07T04:15:36.046Z,91.99
2019-06-07T04:16:36.779Z,91.69
2019-06-07T04:17:34.657Z,91.58
2019-06-07T04:18:33.084Z,91.27
2019-06-07T04:19:35.052Z,91.69
2019-06-07T04:20:35.786Z,91.99
2019-06-07T04:21:35.126Z,91.38
2019-06-07T04:22:38.823Z,91.58
2019-06-07T04:23:37.420Z,91.38
2019-06-07T04:24:36.569Z,91.48
2019-06-07T04:25:37.053Z,91.64
2019-06-07T04:26:35.062Z,91.17
2019-06-07T04:27:33.083Z,91.17
2019-06-07T04:29:27.340Z,91.03
2019-06-07T04:29:47.910Z,91.17
2019-06-07T04:30:36.519Z,91.17
2019-06-07T04:31:33.732Z,90.92
2019-06-07T04:32:33.851Z,90.82
2019-06-07T04:33:37.047Z,90.52
2019-06-07T04:34:37.508Z,91.13
2019-06-07T04:35:34.815Z,90.92
2019-06-07T04:36:45.670Z,90.82
2019-06-07T04:37:33.589Z,90.72
2019-06-07T04:38:36.136Z,90.62
2019-06-07T04:39:34.015Z,90.62
2019-06-07T04:40:33.802Z,90.37
2019-06-07T04:41:33.670Z,90.58
2019-06-07T04:42:35.053Z,90.06
2019-06-07T04:43:33.537Z,89.41
2019-06-07T04:44:35.028Z,89.00
2019-06-07T04:45:40.585Z,88.14
2019-06-07T04:46:35.181Z,88.39
2019-06-07T04:47:33.844Z,88.14
2019-06-07T04:48:33.357Z,88.04
2019-06-07T04:49:33.435Z,87.53
2019-06-07T04:50:35.377Z,87.43
2019-06-07T04:51:33.897Z,87.12
2019-06-07T04:52:33.393Z,87.59
2019-06-07T04:53:35.366Z,86.88
2019-06-07T04:54:33.455Z,86.67
2019-06-07T04:55:33.914Z,86.67
2019-06-07T04:56:33.798Z,86.67
2019-06-07T04:57:34.824Z,86.26
2019-06-07T04:58:33.258Z,86.43
2019-06-07T05:00:04.309Z,86.43
2019-06-07T05:00:53.993Z,85.61
2019-06-07T05:01:34.358Z,86.18
2019-06-07T05:02:32.031Z,86.18
2019-06-07T05:03:36.095Z,84.66
2019-06-07T05:04:33.199Z,84.96
2019-06-07T05:05:31.930Z,84.51
2019-06-07T05:06:34.856Z,84.00
2019-06-07T05:07:32.987Z,83.80
2019-06-07T05:08:33.443Z,83.04
2019-06-07T05:09:32.630Z,83.56
2019-06-07T05:10:35.074Z,82.29
2019-06-07T05:11:33.977Z,81.54
2019-06-07T05:12:32.726Z,81.20
2019-06-07T05:13:37.348Z,80.49
2019-06-07T05:14:33.204Z,79.98
2019-06-07T05:15:32.068Z,79.68
2019-06-07T05:16:35.207Z,79.47
2019-06-07T05:17:33.232Z,78.41
2019-06-07T05:18:33.725Z,78.62
2019-06-07T05:19:35.216Z,78.58
2019-06-07T05:20:34.204Z,78.52
2019-06-07T05:21:59.173Z,77.87
2019-06-07T05:22:34.906Z,77.36
2019-06-07T05:24:35.599Z,76.28
2019-06-07T05:25:34.076Z,75.67
2019-06-07T05:26:33.031Z,76.10
2019-06-07T05:27:33.866Z,76.07
2019-06-07T05:28:32.589Z,76.31
2019-06-07T05:29:33.354Z,76.10
2019-06-07T05:31:36.825Z,76.61
2019-06-07T05:32:34.259Z,76.95
2019-06-07T05:33:35.150Z,76.86
2019-06-07T05:34:34.065Z,77.16
2019-06-07T05:35:32.982Z,77.50
2019-06-07T05:36:31.532Z,77.29
2019-06-07T05:37:33.515Z,77.36
2019-06-07T05:38:31.343Z,77.87
2019-06-07T05:39:32.085Z,77.81
2019-06-07T05:40:32.968Z,78.62
2019-06-07T05:41:32.283Z,78.17
2019-06-07T05:42:32.128Z,77.81
2019-06-07T05:43:35.002Z,77.67
2019-06-07T05:44:32.253Z,77.97
2019-06-07T05:45:32.325Z,77.50
2019-06-07T05:46:33.902Z,77.50
2019-06-07T05:47:32.215Z,78.01
2019-06-07T05:48:31.784Z,78.21
2019-06-07T05:49:32.913Z,77.97
2019-06-07T05:50:41.998Z,78.28
2019-06-07T05:51:32.296Z,77.97
2019-06-07T05:52:33.188Z,77.87
2019-06-07T05:53:31.674Z,78.17
2019-06-07T05:54:34.678Z,78.17
2019-06-07T05:55:31.126Z,78.44
2019-06-07T05:56:31.114Z,77.12
2019-06-07T05:57:31.100Z,77.43
2019-06-07T05:58:31.087Z,76.72
2019-06-07T05:59:31.096Z,76.31
2019-06-07T06:00:31.068Z,76.07
2019-06-07T06:01:45.057Z,75.76
2019-06-07T06:02:34.616Z,76.58
2019-06-07T06:03:34.591Z,76.64
2019-06-07T06:04:31.037Z,76.14
2019-06-07T06:05:37.475Z,76.54
2019-06-07T06:06:31.994Z,75.93
2019-06-07T06:07:30.983Z,75.83
2019-06-07T06:08:31.016Z,73.60
2019-06-07T06:09:30.978Z,73.02
2019-06-07T06:10:30.948Z,72.11
2019-06-07T06:11:45.837Z,71.26
2019-06-07T06:12:38.242Z,70.01
2019-06-07T06:13:31.913Z,69.81
2019-06-07T06:14:30.961Z,70.29
2019-06-07T06:15:42.277Z,68.94
2019-06-07T06:16:31.893Z,69.71
2019-06-07T06:17:30.866Z,69.07
2019-06-07T06:18:30.854Z,67.09
2019-06-07T06:19:30.865Z,65.84
2019-06-07T06:20:33.832Z,64.58
2019-06-07T06:21:31.817Z,63.00
2019-06-07T06:22:30.813Z,60.52
2019-06-07T06:23:30.800Z,59.66
2019-06-07T06:24:30.787Z,59.17
2019-06-07T06:25:33.448Z,57.31
2019-06-07T06:26:30.762Z,56.15
2019-06-07T06:28:03.335Z,54.93
2019-06-07T06:28:31.739Z,54.27
2019-06-07T06:29:30.727Z,52.74
2019-06-07T06:30:30.784Z,51.92
2019-06-07T06:31:30.726Z,50.47
2019-06-07T06:32:41.623Z,49.17
2019-06-07T06:33:34.859Z,48.85
2019-06-07T06:34:30.670Z,49.47
2019-06-07T06:35:30.674Z,49.79
2019-06-07T06:36:30.646Z,49.85
2019-06-07T06:37:30.635Z,49.25
2019-06-07T06:38:31.466Z,48.85
2019-06-07T06:39:30.611Z,48.40
2019-06-07T06:40:30.638Z,48.58
2019-06-07T06:41:30.586Z,47.75
2019-06-07T06:42:30.577Z,46.34
2019-06-07T06:43:30.563Z,46.76
2019-06-07T06:44:30.555Z,46.46
2019-06-07T06:45:30.542Z,46.24
2019-06-07T06:46:39.018Z,45.42
2019-06-07T06:47:31.516Z,45.10
2019-06-07T06:48:30.529Z,44.28
2019-06-07T06:49:30.495Z,44.18
2019-06-07T06:50:30.484Z,45.10
2019-06-07T06:51:30.494Z,44.31
2019-06-07T06:52:30.463Z,45.42
2019-06-07T06:53:30.450Z,45.52
2019-06-07T06:54:40.734Z,44.62
2019-06-07T06:55:31.427Z,45.14
2019-06-07T06:56:30.433Z,45.39
2019-06-07T06:57:30.404Z,46.38
2019-06-07T06:59:18.446Z,46.34
2019-06-07T06:59:39.132Z,46.39
2019-06-07T07:00:43.678Z,44.42
2019-06-07T07:01:31.377Z,45.12
2019-06-07T07:02:30.348Z,45.52
2019-06-07T07:03:56.469Z,46.42
2019-06-07T07:04:31.322Z,46.42
2019-06-07T07:05:30.313Z,45.22
2019-06-07T07:06:30.319Z,45.10
2019-06-07T07:07:30.351Z,45.08
2019-06-07T07:08:30.279Z,44.01
2019-06-07T07:09:30.270Z,44.32
2019-06-07T07:10:30.257Z,45.82
2019-06-07T07:11:30.263Z,45.22
2019-06-07T07:12:30.238Z,45.12
2019-06-07T07:13:30.222Z,44.62
2019-06-07T07:14:30.211Z,44.60
2019-06-07T07:15:30.199Z,44.98
2019-06-07T07:16:30.215Z,43.16
2019-06-07T07:17:47.817Z,43.02
2019-06-07T07:18:31.166Z,42.39
2019-06-07T07:19:30.154Z,41.26
2019-06-07T07:20:30.205Z,40.42
2019-06-07T07:21:30.148Z,40.20
2019-06-07T07:22:30.122Z,39.40
2019-06-07T07:23:30.119Z,38.21
2019-06-07T07:24:30.102Z,39.89
2019-06-07T07:25:30.087Z,37.77
2019-06-07T07:26:30.095Z,37.56
2019-06-07T07:27:30.068Z,37.21
2019-06-07T07:28:30.054Z,36.68
2019-06-07T07:29:30.042Z,35.86
2019-06-07T07:30:36.817Z,34.77
2019-06-07T07:31:31.036Z,34.97
2019-06-07T07:32:30.009Z,34.54
2019-06-07T07:34:23.966Z,33.23
2019-06-07T07:34:35.658Z,32.74
2019-06-07T07:35:30.973Z,32.54
2019-06-07T07:36:39.291Z,33.13
2019-06-07T07:37:30.970Z,33.58
2019-06-07T07:38:29.975Z,34.66
2019-06-07T07:39:29.934Z,34.38
2019-06-07T07:40:56.956Z,34.49
2019-06-07T07:41:30.909Z,34.17
2019-06-07T07:42:29.920Z,34.72
2019-06-07T07:43:29.897Z,33.41
2019-06-07T07:44:29.877Z,32.45
2019-06-07T07:45:29.868Z,33.64
2019-06-07T07:46:30.342Z,35.33
2019-06-07T07:47:29.861Z,36.25
2019-06-07T07:48:29.837Z,35.86
2019-06-07T07:49:29.827Z,34.25
2019-06-07T07:50:29.814Z,35.33
2019-06-07T07:51:29.805Z,35.63
2019-06-07T07:52:29.813Z,35.63
2019-06-07T07:53:47.911Z,35.61
2019-06-07T07:54:30.768Z,35.30
2019-06-07T07:55:29.827Z,34.61
2019-06-07T07:56:29.749Z,34.71
2019-06-07T07:57:29.757Z,34.38
2019-06-07T07:58:29.728Z,34.77
2019-06-07T07:59:41.762Z,34.86
2019-06-07T08:00:52.503Z,33.26
2019-06-07T08:01:30.694Z,33.77
2019-06-07T08:02:29.706Z,32.67
2019-06-07T08:03:29.676Z,32.67
2019-06-07T08:05:13.045Z,33.44
2019-06-07T08:05:42.574Z,33.12
2019-06-07T08:06:30.660Z,32.79
2019-06-07T08:07:30.454Z,31.30
2019-06-07T08:08:29.623Z,31.32
2019-06-07T08:09:29.614Z,30.33
2019-06-07T08:10:29.604Z,32.54
2019-06-07T08:11:29.594Z,32.62
2019-06-07T08:12:29.582Z,31.84
2019-06-07T08:13:29.589Z,32.12
2019-06-07T08:14:29.572Z,32.81
2019-06-07T08:15:29.552Z,31.20
2019-06-07T08:16:29.541Z,32.28
2019-06-07T08:17:29.529Z,31.51
2019-06-07T08:18:29.539Z,31.70
2019-06-07T08:19:29.508Z,30.21
2019-06-07T08:20:29.500Z,30.00
2019-06-07T08:21:29.489Z,30.90
2019-06-07T08:22:29.484Z,30.40
2019-06-07T08:23:29.521Z,30.39
2019-06-07T08:24:29.461Z,30.00
2019-06-07T08:25:29.451Z,30.74
2019-06-07T08:26:29.476Z,30.22
2019-06-07T08:27:29.432Z,28.65
2019-06-07T08:28:29.442Z,28.83
2019-06-07T08:29:44.182Z,28.64
2019-06-07T08:31:30.392Z,28.44
2019-06-07T08:32:29.383Z,28.77
2019-06-07T08:33:29.392Z,29.35
2019-06-07T08:34:29.365Z,29.35
2019-06-07T08:36:05.814Z,30.13
2019-06-07T08:36:41.427Z,29.44
2019-06-07T08:38:14.022Z,28.55
2019-06-07T08:38:46.962Z,28.75
2019-06-07T08:39:30.316Z,28.83
2019-06-07T08:40:29.521Z,28.53
2019-06-07T08:41:29.298Z,28.71
2019-06-07T08:42:36.939Z,28.30
2019-06-07T08:43:30.301Z,27.72
2019-06-07T08:44:29.274Z,28.20
2019-06-07T08:45:29.266Z,27.70
2019-06-07T08:46:29.255Z,27.59
2019-06-07T08:47:29.249Z,27.97
2019-06-07T08:48:30.358Z,27.00
2019-06-07T08:49:29.229Z,27.79
2019-06-07T08:50:29.224Z,27.90
2019-06-07T08:51:29.214Z,27.81
2019-06-07T08:52:29.206Z,26.95
2019-06-07T08:53:29.216Z,27.06
2019-06-07T08:54:29.181Z,29.66
2019-06-07T08:55:29.202Z,29.58
2019-06-07T08:56:29.188Z,28.79
2019-06-07T08:57:29.156Z,29.43
2019-06-07T08:58:29.174Z,30.68
2019-06-07T08:59:29.136Z,30.49
2019-06-07T09:00:45.385Z,29.80
2019-06-07T09:01:30.116Z,31.33
2019-06-07T09:02:29.110Z,32.43
2019-06-07T09:03:29.100Z,32.51
2019-06-07T09:04:29.128Z,32.38
2019-06-07T09:05:29.148Z,31.45
2019-06-07T09:07:30.064Z,29.97
2019-06-07T09:08:30.962Z,30.08
2019-06-07T09:09:29.069Z,30.75
2019-06-07T09:10:29.043Z,29.28
2019-06-07T09:11:29.033Z,30.39
2019-06-07T09:12:29.024Z,32.95
2019-06-07T09:13:29.015Z,31.67
2019-06-07T09:14:29.035Z,30.27
2019-06-07T09:15:28.998Z,31.07
2019-06-07T09:16:28.992Z,31.47
2019-06-07T09:17:28.984Z,30.57
2019-06-07T09:18:42.691Z,30.27
2019-06-07T09:19:29.984Z,30.55
2019-06-07T09:20:36.663Z,30.05
2019-06-07T09:21:29.948Z,30.02
2019-06-07T09:22:28.939Z,29.42
2019-06-07T09:23:28.936Z,29.50
2019-06-07T09:24:28.940Z,27.76
2019-06-07T09:25:28.913Z,28.93
2019-06-07T09:26:28.906Z,29.32
2019-06-07T09:27:28.898Z,31.04
2019-06-07T09:28:28.910Z,29.75
2019-06-07T09:29:28.901Z,29.17
2019-06-07T09:30:28.869Z,31.01
2019-06-07T09:31:51.109Z,29.14
2019-06-07T09:32:29.853Z,31.39
2019-06-07T09:33:28.842Z,30.30
2019-06-07T09:34:28.918Z,28.67
2019-06-07T09:35:28.881Z,29.59
2019-06-07T09:36:28.818Z,32.74
2019-06-07T09:38:29.795Z,30.08
2019-06-07T09:39:28.786Z,30.50
2019-06-07T09:40:28.799Z,32.14
2019-06-07T09:41:46.919Z,32.45
2019-06-07T09:42:29.755Z,32.84
2019-06-07T09:44:00.853Z,32.93
2019-06-07T09:44:29.738Z,33.54
2019-06-07T09:45:28.780Z,32.92
2019-06-07T09:46:28.721Z,32.79
2019-06-07T09:47:32.413Z,32.76
2019-06-07T09:49:32.912Z,31.16
2019-06-07T09:50:28.701Z,31.32
2019-06-07T09:51:28.673Z,29.56
2019-06-07T09:52:28.663Z,31.41
2019-06-07T09:53:28.653Z,31.00
2019-06-07T09:55:03.129Z,30.58
2019-06-07T09:55:29.849Z,29.30
2019-06-07T09:56:28.624Z,30.06
2019-06-07T09:57:28.616Z,30.37
2019-06-07T09:58:51.303Z,29.11
2019-06-07T09:59:29.598Z,28.44
2019-06-07T10:00:43.182Z,29.80
2019-06-07T10:01:29.578Z,29.53
2019-06-07T10:02:28.570Z,31.28
2019-06-07T10:03:28.561Z,29.90
2019-06-07T10:04:31.548Z,28.89
2019-06-07T10:05:28.561Z,28.71
2019-06-07T10:06:28.534Z,30.06
2019-06-07T10:07:31.623Z,30.24
2019-06-07T10:11:28.486Z,30.05
2019-06-07T10:12:28.477Z,29.22
2019-06-07T10:13:28.561Z,28.82
2019-06-07T10:14:28.460Z,27.45
2019-06-07T10:15:28.450Z,27.45
2019-06-07T10:16:28.459Z,27.28
2019-06-07T10:17:28.429Z,27.20
2019-06-07T10:18:28.419Z,28.49
2019-06-07T10:19:28.414Z,28.52
2019-06-07T10:20:28.404Z,30.35
2019-06-07T10:21:28.413Z,29.08
2019-06-07T10:22:28.386Z,29.41
2019-06-07T10:23:28.375Z,30.09
2019-06-07T10:24:28.366Z,29.50
2019-06-07T10:25:28.355Z,30.30
2019-06-07T10:26:28.366Z,29.63
2019-06-07T10:27:28.337Z,29.71
2019-06-07T10:28:28.331Z,28.34
2019-06-07T10:29:28.318Z,29.74
2019-06-07T10:30:28.309Z,29.55
2019-06-07T10:31:28.317Z,30.07
2019-06-07T10:32:28.292Z,30.39
2019-06-07T10:33:28.282Z,32.43
2019-06-07T10:34:28.277Z,32.61
2019-06-07T10:35:28.266Z,29.56
2019-06-07T10:36:28.271Z,29.85
2019-06-07T10:37:28.242Z,30.16
2019-06-07T10:38:28.235Z,30.44
2019-06-07T10:39:28.225Z,31.80
2019-06-07T10:40:28.217Z,30.51
2019-06-07T10:41:28.227Z,29.71
2019-06-07T10:42:28.197Z,29.95
2019-06-07T10:43:28.186Z,31.26
2019-06-07T10:44:28.178Z,30.08
2019-06-07T10:45:28.172Z,30.16
2019-06-07T10:46:28.157Z,30.18
2019-06-07T10:47:28.165Z,31.30
2019-06-07T10:48:28.146Z,31.79
2019-06-07T10:49:28.128Z,32.66
2019-06-07T10:50:28.118Z,30.40
2019-06-07T10:51:28.110Z,32.27
2019-06-07T10:52:28.116Z,30.99
2019-06-07T10:53:28.089Z,33.34
2019-06-07T10:54:30.650Z,30.37
2019-06-07T10:55:28.069Z,30.47
2019-06-07T10:56:28.058Z,31.09
2019-06-07T10:57:28.069Z,31.56
2019-06-07T10:58:28.040Z,33.28
2019-06-07T10:59:28.025Z,34.22
2019-06-07T11:00:28.023Z,35.02
2019-06-07T11:01:28.011Z,35.47
2019-06-07T11:02:28.042Z,35.96
2019-06-07T11:03:27.984Z,36.85
2019-06-07T11:04:27.975Z,36.02
2019-06-07T11:05:27.962Z,35.08
2019-06-07T11:06:27.959Z,35.64
2019-06-07T11:07:27.961Z,35.41
2019-06-07T11:08:27.932Z,34.18
2019-06-07T11:09:27.923Z,32.48
2019-06-07T11:10:27.910Z,31.40
2019-06-07T11:11:27.901Z,31.61
2019-06-07T11:12:27.907Z,32.81
2019-06-07T11:13:27.879Z,34.10
2019-06-07T11:14:27.871Z,32.69
2019-06-07T11:15:27.863Z,31.48
2019-06-07T11:16:27.866Z,30.32
2019-06-07T11:17:27.898Z,30.76
2019-06-07T11:18:27.847Z,32.56
2019-06-07T11:19:27.821Z,32.08
2019-06-07T11:20:27.811Z,33.38
2019-06-07T11:21:27.800Z,33.87
2019-06-07T11:22:27.795Z,34.38
2019-06-07T11:23:27.798Z,33.98
2019-06-07T11:24:27.768Z,34.89
2019-06-07T11:25:27.758Z,34.41
2019-06-07T11:26:27.748Z,34.61
2019-06-07T11:27:27.736Z,33.91
2019-06-07T11:28:27.747Z,34.99
2019-06-07T11:29:27.717Z,34.89
2019-06-07T11:30:27.705Z,32.98
2019-06-07T11:31:27.696Z,33.18
2019-06-07T11:32:27.685Z,33.56
2019-06-07T11:33:27.699Z,34.82
2019-06-07T11:34:27.672Z,33.54
2019-06-07T11:35:27.652Z,33.74
2019-06-07T11:36:27.642Z,33.94
2019-06-07T11:37:27.631Z,35.00
2019-06-07T11:38:27.647Z,32.84
2019-06-07T11:39:27.611Z,33.80
2019-06-07T11:40:34.847Z,30.28
2019-06-07T11:41:28.587Z,32.38
2019-06-07T11:42:27.578Z,32.77
2019-06-07T11:43:27.586Z,34.33
2019-06-07T11:44:27.560Z,33.43
2019-06-07T11:45:27.544Z,32.72
2019-06-07T11:46:27.539Z,33.00
2019-06-07T11:47:27.524Z,33.48
2019-06-07T11:48:27.544Z,32.50
2019-06-07T11:49:27.503Z,32.68
2019-06-07T11:50:27.497Z,31.71
2019-06-07T11:51:27.485Z,31.46
2019-06-07T11:52:27.472Z,32.45
2019-06-07T11:53:27.481Z,31.84
2019-06-07T11:54:27.454Z,32.33
2019-06-07T11:55:27.461Z,32.53
2019-06-07T11:56:27.441Z,31.63
2019-06-07T11:57:27.423Z,31.43
2019-06-07T11:58:27.466Z,33.79
2019-06-07T11:59:27.407Z,31.53
2019-06-07T12:00:27.407Z,31.41
2019-06-07T12:01:27.384Z,32.68
2019-06-07T12:02:27.376Z,31.12
2019-06-07T12:03:27.382Z,30.25
2019-06-07T12:04:34.560Z,30.14
2019-06-07T12:05:28.360Z,31.04
2019-06-07T12:06:27.350Z,31.73
2019-06-07T12:07:28.492Z,33.08
2019-06-07T12:08:34.397Z,29.96
2019-06-07T12:09:28.101Z,34.28
2019-06-07T12:10:39.527Z,32.50
2019-06-07T12:11:28.280Z,32.18
2019-06-07T12:12:27.277Z,31.30
2019-06-07T12:13:27.264Z,30.12
2019-06-07T12:14:27.269Z,31.33
2019-06-07T12:15:27.245Z,32.41
2019-06-07T12:16:27.233Z,32.33
2019-06-07T12:17:27.223Z,31.64
2019-06-07T12:18:27.213Z,32.62
2019-06-07T12:19:27.219Z,32.12
2019-06-07T12:20:27.191Z,31.94
2019-06-07T12:21:27.181Z,30.94
2019-06-07T12:22:27.175Z,32.41
2019-06-07T12:23:27.160Z,32.78
2019-06-07T12:24:27.170Z,31.68
2019-06-07T12:25:27.140Z,32.15
2019-06-07T12:26:27.131Z,32.51
2019-06-07T12:27:27.122Z,31.52
2019-06-07T12:28:27.108Z,29.95
2019-06-07T12:29:27.099Z,31.03
2019-06-07T12:30:28.053Z,29.45
2019-06-07T12:31:27.078Z,28.86
2019-06-07T12:32:27.072Z,28.39
2019-06-07T12:33:27.060Z,28.11
2019-06-07T12:34:27.047Z,28.72
2019-06-07T12:35:27.055Z,29.60
2019-06-07T12:36:27.028Z,30.12
2019-06-07T12:37:42.616Z,30.60
2019-06-07T12:38:28.004Z,27.67
2019-06-07T12:39:27.002Z,31.79
2019-06-07T12:40:32.090Z,29.63
2019-06-07T12:41:27.971Z,28.36
2019-06-07T12:42:26.965Z,28.85
2019-06-07T12:43:26.952Z,30.02
2019-06-07T12:44:26.946Z,29.64
2019-06-07T12:45:43.774Z,29.75
2019-06-07T12:46:28.692Z,29.96
2019-06-07T12:47:26.915Z,30.46
2019-06-07T12:48:26.902Z,31.36
2019-06-07T12:49:26.892Z,32.56
2019-06-07T12:50:41.914Z,31.88
2019-06-07T12:51:27.867Z,32.39
2019-06-07T12:52:26.859Z,32.90
2019-06-07T12:53:28.294Z,33.69
2019-06-07T12:54:26.839Z,34.18
2019-06-07T12:55:26.846Z,32.59
2019-06-07T12:56:26.815Z,31.52
2019-06-07T12:57:26.807Z,32.98
2019-06-07T12:58:34.464Z,31.39
2019-06-07T12:59:27.781Z,33.25
2019-06-07T13:00:26.791Z,31.54
2019-06-07T13:01:26.762Z,30.25